sensor_id;sensor_type;location;lat;lon;timestamp;pressure;altitude;pressure_sealevel;temperature
67758;BMP180;54562;47.620;18.786;2022-07-23T00:01:48;98489.80;;;24.30
67758;BMP180;54562;47.620;18.786;2022-07-23T00:04:53;98489.60;;;24.20
67758;BMP180;54562;47.620;18.786;2022-07-23T00:07:58;98489.60;;;24.20
67758;BMP180;54562;47.620;18.786;2022-07-23T00:11:04;98486.40;;;24.10
67758;BMP180;54562;47.620;18.786;2022-07-23T00:14:08;98485.80;;;24.00
67758;BMP180;54562;47.620;18.786;2022-07-23T00:17:13;98479.20;;;23.90
67758;BMP180;54562;47.620;18.786;2022-07-23T00:20:18;98480.00;;;23.90
67758;BMP180;54562;47.620;18.786;2022-07-23T00:23:23;98484.60;;;23.80
67758;BMP180;54562;47.620;18.786;2022-07-23T00:26:28;98486.00;;;23.70
67758;BMP180;54562;47.620;18.786;2022-07-23T00:29:34;98486.80;;;23.60
67758;BMP180;54562;47.620;18.786;2022-07-23T00:32:48;98487.80;;;23.60
67758;BMP180;54562;47.620;18.786;2022-07-23T00:35:59;98486.60;;;23.50
67758;BMP180;54562;47.620;18.786;2022-07-23T00:39:05;98487.00;;;23.40
67758;BMP180;54562;47.620;18.786;2022-07-23T00:42:10;98489.00;;;23.40
67758;BMP180;54562;47.620;18.786;2022-07-23T00:45:14;98490.60;;;23.30
67758;BMP180;54562;47.620;18.786;2022-07-23T00:48:19;98490.80;;;23.20
67758;BMP180;54562;47.620;18.786;2022-07-23T00:51:24;98489.20;;;23.20
67758;BMP180;54562;47.620;18.786;2022-07-23T00:54:30;98485.60;;;23.10
67758;BMP180;54562;47.620;18.786;2022-07-23T00:57:35;98484.20;;;23.10
67758;BMP180;54562;47.620;18.786;2022-07-23T01:00:41;98478.40;;;23.00
67758;BMP180;54562;47.620;18.786;2022-07-23T01:03:46;98475.60;;;23.00
67758;BMP180;54562;47.620;18.786;2022-07-23T01:06:51;98476.20;;;22.90
67758;BMP180;54562;47.620;18.786;2022-07-23T01:09:57;98474.20;;;22.90
67758;BMP180;54562;47.620;18.786;2022-07-23T01:13:06;98474.40;;;22.80
67758;BMP180;54562;47.620;18.786;2022-07-23T01:16:11;98473.00;;;22.80
67758;BMP180;54562;47.620;18.786;2022-07-23T01:19:18;98471.00;;;22.80
67758;BMP180;54562;47.620;18.786;2022-07-23T01:25:34;98474.60;;;22.70
67758;BMP180;54562;47.620;18.786;2022-07-23T01:28:38;98468.80;;;22.70
67758;BMP180;54562;47.620;18.786;2022-07-23T01:31:44;98472.20;;;22.64
67758;BMP180;54562;47.620;18.786;2022-07-23T01:34:49;98464.80;;;22.60
67758;BMP180;54562;47.620;18.786;2022-07-23T01:37:54;98468.00;;;22.60
67758;BMP180;54562;47.620;18.786;2022-07-23T01:40:58;98465.60;;;22.60
67758;BMP180;54562;47.620;18.786;2022-07-23T01:44:04;98465.40;;;22.50
67758;BMP180;54562;47.620;18.786;2022-07-23T01:47:09;98463.20;;;22.50
67758;BMP180;54562;47.620;18.786;2022-07-23T01:50:14;98457.20;;;22.50
67758;BMP180;54562;47.620;18.786;2022-07-23T01:53:19;98455.20;;;22.50
67758;BMP180;54562;47.620;18.786;2022-07-23T01:56:24;98461.80;;;22.42
67758;BMP180;54562;47.620;18.786;2022-07-23T01:59:29;98453.20;;;22.40
67758;BMP180;54562;47.620;18.786;2022-07-23T02:02:35;98451.00;;;22.40
67758;BMP180;54562;47.620;18.786;2022-07-23T02:05:39;98451.40;;;22.40
67758;BMP180;54562;47.620;18.786;2022-07-23T02:08:44;98455.80;;;22.42
67758;BMP180;54562;47.620;18.786;2022-07-23T02:11:49;98457.00;;;22.50
67758;BMP180;54562;47.620;18.786;2022-07-23T02:14:54;98453.20;;;22.50
67758;BMP180;54562;47.620;18.786;2022-07-23T02:17:59;98458.60;;;22.50
67758;BMP180;54562;47.620;18.786;2022-07-23T02:21:05;98461.00;;;22.50
67758;BMP180;54562;47.620;18.786;2022-07-23T02:24:11;98461.60;;;22.50
67758;BMP180;54562;47.620;18.786;2022-07-23T02:27:16;98460.20;;;22.52
67758;BMP180;54562;47.620;18.786;2022-07-23T02:30:21;98463.80;;;22.60
67758;BMP180;54562;47.620;18.786;2022-07-23T02:33:27;98464.60;;;22.60
67758;BMP180;54562;47.620;18.786;2022-07-23T02:36:32;98465.80;;;22.60
67758;BMP180;54562;47.620;18.786;2022-07-23T02:39:37;98471.20;;;22.60
67758;BMP180;54562;47.620;18.786;2022-07-23T02:42:42;98469.60;;;22.60
67758;BMP180;54562;47.620;18.786;2022-07-23T02:45:47;98469.00;;;22.60
67758;BMP180;54562;47.620;18.786;2022-07-23T02:48:52;98472.80;;;22.60
67758;BMP180;54562;47.620;18.786;2022-07-23T02:51:56;98474.00;;;22.60
67758;BMP180;54562;47.620;18.786;2022-07-23T02:55:01;98469.80;;;22.60
67758;BMP180;54562;47.620;18.786;2022-07-23T02:58:06;98467.20;;;22.60
67758;BMP180;54562;47.620;18.786;2022-07-23T03:01:11;98466.80;;;22.50
67758;BMP180;54562;47.620;18.786;2022-07-23T03:04:16;98462.80;;;22.40
67758;BMP180;54562;47.620;18.786;2022-07-23T03:07:21;98468.20;;;22.40
67758;BMP180;54562;47.620;18.786;2022-07-23T03:10:26;98467.40;;;22.30
67758;BMP180;54562;47.620;18.786;2022-07-23T03:13:31;98466.80;;;22.30
67758;BMP180;54562;47.620;18.786;2022-07-23T03:16:39;98468.60;;;22.20
67758;BMP180;54562;47.620;18.786;2022-07-23T03:19:44;98466.00;;;22.18
67758;BMP180;54562;47.620;18.786;2022-07-23T03:22:49;98467.80;;;22.10
67758;BMP180;54562;47.620;18.786;2022-07-23T03:25:54;98468.00;;;22.00
67758;BMP180;54562;47.620;18.786;2022-07-23T03:28:59;98460.00;;;22.00
67758;BMP180;54562;47.620;18.786;2022-07-23T03:32:06;98462.20;;;21.94
67758;BMP180;54562;47.620;18.786;2022-07-23T03:35:12;98462.20;;;21.94
67758;BMP180;54562;47.620;18.786;2022-07-23T03:38:20;98459.20;;;22.00
67758;BMP180;54562;47.620;18.786;2022-07-23T03:41:25;98460.40;;;22.00
67758;BMP180;54562;47.620;18.786;2022-07-23T03:44:30;98464.20;;;22.00
67758;BMP180;54562;47.620;18.786;2022-07-23T03:47:35;98467.00;;;22.00
67758;BMP180;54562;47.620;18.786;2022-07-23T03:50:40;98467.40;;;22.00
67758;BMP180;54562;47.620;18.786;2022-07-23T03:53:45;98464.60;;;22.10
67758;BMP180;54562;47.620;18.786;2022-07-23T03:56:49;98461.00;;;22.10
67758;BMP180;54562;47.620;18.786;2022-07-23T03:59:54;98464.80;;;22.10
67758;BMP180;54562;47.620;18.786;2022-07-23T04:02:59;98465.40;;;22.10
67758;BMP180;54562;47.620;18.786;2022-07-23T04:06:05;98468.00;;;22.12
67758;BMP180;54562;47.620;18.786;2022-07-23T04:09:10;98471.60;;;22.20
67758;BMP180;54562;47.620;18.786;2022-07-23T04:12:15;98465.20;;;22.24
67758;BMP180;54562;47.620;18.786;2022-07-23T04:15:19;98463.20;;;22.30
67758;BMP180;54562;47.620;18.786;2022-07-23T04:18:24;98458.60;;;22.40
67758;BMP180;54562;47.620;18.786;2022-07-23T04:21:29;98459.60;;;22.40
67758;BMP180;54562;47.620;18.786;2022-07-23T04:24:34;98458.40;;;22.50
67758;BMP180;54562;47.620;18.786;2022-07-23T04:27:39;98462.20;;;22.56
67758;BMP180;54562;47.620;18.786;2022-07-23T04:30:44;98464.60;;;22.60
67758;BMP180;54562;47.620;18.786;2022-07-23T04:33:48;98464.00;;;22.70
67758;BMP180;54562;47.620;18.786;2022-07-23T04:36:53;98468.40;;;22.80
67758;BMP180;54562;47.620;18.786;2022-07-23T04:39:58;98466.00;;;22.90
67758;BMP180;54562;47.620;18.786;2022-07-23T04:43:03;98467.40;;;23.04
67758;BMP180;54562;47.620;18.786;2022-07-23T04:46:09;98470.40;;;23.20
67758;BMP180;54562;47.620;18.786;2022-07-23T04:49:16;98467.80;;;23.30
67758;BMP180;54562;47.620;18.786;2022-07-23T04:52:22;98471.40;;;23.50
67758;BMP180;54562;47.620;18.786;2022-07-23T04:55:27;98466.40;;;23.60
67758;BMP180;54562;47.620;18.786;2022-07-23T04:58:32;98465.60;;;23.78
67758;BMP180;54562;47.620;18.786;2022-07-23T05:01:37;98461.40;;;23.90
67758;BMP180;54562;47.620;18.786;2022-07-23T05:04:42;98466.80;;;24.00
67758;BMP180;54562;47.620;18.786;2022-07-23T05:07:47;98467.80;;;24.20
67758;BMP180;54562;47.620;18.786;2022-07-23T05:10:52;98462.60;;;24.40
67758;BMP180;54562;47.620;18.786;2022-07-23T05:13:57;98465.60;;;24.46
67758;BMP180;54562;47.620;18.786;2022-07-23T05:17:01;98465.20;;;24.60
67758;BMP180;54562;47.620;18.786;2022-07-23T05:20:08;98464.80;;;24.70
67758;BMP180;54562;47.620;18.786;2022-07-23T05:23:13;98463.00;;;24.90
67758;BMP180;54562;47.620;18.786;2022-07-23T05:26:18;98465.00;;;25.00
67758;BMP180;54562;47.620;18.786;2022-07-23T05:29:25;98471.60;;;25.20
67758;BMP180;54562;47.620;18.786;2022-07-23T05:32:31;98470.00;;;25.30
67758;BMP180;54562;47.620;18.786;2022-07-23T05:35:37;98465.60;;;25.60
67758;BMP180;54562;47.620;18.786;2022-07-23T05:38:42;98470.00;;;25.88
67758;BMP180;54562;47.620;18.786;2022-07-23T05:41:47;98471.80;;;26.10
67758;BMP180;54562;47.620;18.786;2022-07-23T05:44:53;98473.20;;;26.40
67758;BMP180;54562;47.620;18.786;2022-07-23T05:47:57;98468.40;;;26.70
67758;BMP180;54562;47.620;18.786;2022-07-23T05:51:03;98471.60;;;26.94
67758;BMP180;54562;47.620;18.786;2022-07-23T05:54:10;98466.40;;;27.18
67758;BMP180;54562;47.620;18.786;2022-07-23T05:57:15;98467.00;;;27.30
67758;BMP180;54562;47.620;18.786;2022-07-23T06:00:29;98460.40;;;27.40
67758;BMP180;54562;47.620;18.786;2022-07-23T06:03:34;98461.40;;;27.50
67758;BMP180;54562;47.620;18.786;2022-07-23T06:06:39;98465.80;;;27.60
67758;BMP180;54562;47.620;18.786;2022-07-23T06:09:44;98465.00;;;27.68
67758;BMP180;54562;47.620;18.786;2022-07-23T06:12:51;98469.00;;;27.70
67758;BMP180;54562;47.620;18.786;2022-07-23T06:15:58;98471.80;;;27.80
67758;BMP180;54562;47.620;18.786;2022-07-23T06:19:04;98471.80;;;27.90
67758;BMP180;54562;47.620;18.786;2022-07-23T06:22:09;98465.20;;;28.00
67758;BMP180;54562;47.620;18.786;2022-07-23T06:25:14;98465.00;;;28.10
67758;BMP180;54562;47.620;18.786;2022-07-23T06:28:23;98457.80;;;28.30
67758;BMP180;54562;47.620;18.786;2022-07-23T06:31:28;98461.60;;;28.40
67758;BMP180;54562;47.620;18.786;2022-07-23T06:34:33;98460.60;;;28.60
67758;BMP180;54562;47.620;18.786;2022-07-23T06:37:38;98467.40;;;28.76
67758;BMP180;54562;47.620;18.786;2022-07-23T06:40:43;98460.00;;;28.90
67758;BMP180;54562;47.620;18.786;2022-07-23T06:43:49;98456.40;;;29.00
67758;BMP180;54562;47.620;18.786;2022-07-23T06:46:54;98459.80;;;29.12
67758;BMP180;54562;47.620;18.786;2022-07-23T06:49:59;98463.40;;;29.30
67758;BMP180;54562;47.620;18.786;2022-07-23T06:53:04;98465.40;;;29.40
67758;BMP180;54562;47.620;18.786;2022-07-23T06:56:09;98464.20;;;29.50
67758;BMP180;54562;47.620;18.786;2022-07-23T06:59:14;98462.00;;;29.70
67758;BMP180;54562;47.620;18.786;2022-07-23T07:02:19;98465.00;;;29.80
67758;BMP180;54562;47.620;18.786;2022-07-23T07:05:25;98458.40;;;30.00
67758;BMP180;54562;47.620;18.786;2022-07-23T07:08:31;98455.60;;;30.20
67758;BMP180;54562;47.620;18.786;2022-07-23T07:11:36;98456.60;;;30.40
67758;BMP180;54562;47.620;18.786;2022-07-23T07:14:40;98457.20;;;30.50
67758;BMP180;54562;47.620;18.786;2022-07-23T07:17:46;98458.20;;;30.70
67758;BMP180;54562;47.620;18.786;2022-07-23T07:20:51;98461.80;;;30.80
67758;BMP180;54562;47.620;18.786;2022-07-23T07:24:00;98457.20;;;30.90
67758;BMP180;54562;47.620;18.786;2022-07-23T07:27:05;98459.80;;;31.00
67758;BMP180;54562;47.620;18.786;2022-07-23T07:30:12;98459.40;;;31.04
67758;BMP180;54562;47.620;18.786;2022-07-23T07:33:17;98456.20;;;31.10
67758;BMP180;54562;47.620;18.786;2022-07-23T07:36:22;98454.80;;;31.20
67758;BMP180;54562;47.620;18.786;2022-07-23T07:39:27;98454.40;;;31.30
67758;BMP180;54562;47.620;18.786;2022-07-23T07:42:32;98453.60;;;31.40
67758;BMP180;54562;47.620;18.786;2022-07-23T07:45:37;98450.00;;;31.50
67758;BMP180;54562;47.620;18.786;2022-07-23T07:48:42;98451.60;;;31.60
67758;BMP180;54562;47.620;18.786;2022-07-23T07:51:47;98457.20;;;31.70
67758;BMP180;54562;47.620;18.786;2022-07-23T07:54:52;98458.60;;;31.80
67758;BMP180;54562;47.620;18.786;2022-07-23T07:57:57;98461.60;;;31.96
67758;BMP180;54562;47.620;18.786;2022-07-23T08:01:02;98463.80;;;32.04
67758;BMP180;54562;47.620;18.786;2022-07-23T08:04:07;98462.00;;;32.20
67758;BMP180;54562;47.620;18.786;2022-07-23T08:07:12;98459.20;;;32.30
67758;BMP180;54562;47.620;18.786;2022-07-23T08:10:17;98462.40;;;32.42
67758;BMP180;54562;47.620;18.786;2022-07-23T08:13:22;98463.60;;;32.50
67758;BMP180;54562;47.620;18.786;2022-07-23T08:16:26;98464.20;;;32.64
67758;BMP180;54562;47.620;18.786;2022-07-23T08:19:31;98466.00;;;32.76
67758;BMP180;54562;47.620;18.786;2022-07-23T08:22:49;98470.80;;;32.90
67758;BMP180;54562;47.620;18.786;2022-07-23T08:25:54;98468.80;;;33.00
67758;BMP180;54562;47.620;18.786;2022-07-23T08:29:00;98468.60;;;33.08
67758;BMP180;54562;47.620;18.786;2022-07-23T08:32:06;98468.40;;;33.20
67758;BMP180;54562;47.620;18.786;2022-07-23T08:35:33;98473.00;;;33.30
67758;BMP180;54562;47.620;18.786;2022-07-23T08:38:38;98471.00;;;33.42
67758;BMP180;54562;47.620;18.786;2022-07-23T08:41:44;98471.20;;;33.60
67758;BMP180;54562;47.620;18.786;2022-07-23T08:44:49;98468.80;;;33.72
67758;BMP180;54562;47.620;18.786;2022-07-23T08:47:56;98463.20;;;33.80
67758;BMP180;54562;47.620;18.786;2022-07-23T08:51:05;98467.00;;;33.90
67758;BMP180;54562;47.620;18.786;2022-07-23T08:54:12;98462.00;;;33.94
67758;BMP180;54562;47.620;18.786;2022-07-23T08:57:17;98460.00;;;34.00
67758;BMP180;54562;47.620;18.786;2022-07-23T09:00:23;98453.40;;;34.04
67758;BMP180;54562;47.620;18.786;2022-07-23T09:03:30;98451.60;;;34.10
67758;BMP180;54562;47.620;18.786;2022-07-23T09:06:39;98446.20;;;34.20
67758;BMP180;54562;47.620;18.786;2022-07-23T09:09:44;98445.00;;;34.30
67758;BMP180;54562;47.620;18.786;2022-07-23T09:12:48;98455.80;;;34.40
67758;BMP180;54562;47.620;18.786;2022-07-23T09:15:56;98447.00;;;34.50
67758;BMP180;54562;47.620;18.786;2022-07-23T09:19:03;98451.80;;;34.60
67758;BMP180;54562;47.620;18.786;2022-07-23T09:22:23;98449.40;;;34.72
67758;BMP180;54562;47.620;18.786;2022-07-23T09:25:32;98448.60;;;34.80
67758;BMP180;54562;47.620;18.786;2022-07-23T09:28:53;98446.60;;;34.90
67758;BMP180;54562;47.620;18.786;2022-07-23T09:32:00;98450.20;;;35.00
67758;BMP180;54562;47.620;18.786;2022-07-23T09:35:07;98443.60;;;35.10
67758;BMP180;54562;47.620;18.786;2022-07-23T09:38:12;98438.80;;;35.14
67758;BMP180;54562;47.620;18.786;2022-07-23T09:41:18;98446.80;;;35.20
67758;BMP180;54562;47.620;18.786;2022-07-23T09:44:23;98445.20;;;35.40
67758;BMP180;54562;47.620;18.786;2022-07-23T09:47:33;98453.80;;;35.60
67758;BMP180;54562;47.620;18.786;2022-07-23T09:50:40;98445.80;;;35.62
67758;BMP180;54562;47.620;18.786;2022-07-23T09:53:45;98440.60;;;35.70
67758;BMP180;54562;47.620;18.786;2022-07-23T09:56:50;98439.60;;;35.90
67758;BMP180;54562;47.620;18.786;2022-07-23T10:00:00;98439.40;;;36.10
67758;BMP180;54562;47.620;18.786;2022-07-23T10:03:09;98435.60;;;36.32
67758;BMP180;54562;47.620;18.786;2022-07-23T10:06:15;98441.60;;;36.50
67758;BMP180;54562;47.620;18.786;2022-07-23T10:09:26;98434.80;;;36.46
67758;BMP180;54562;47.620;18.786;2022-07-23T10:12:32;98435.00;;;36.50
67758;BMP180;54562;47.620;18.786;2022-07-23T10:16:00;98427.80;;;36.60
67758;BMP180;54562;47.620;18.786;2022-07-23T10:19:06;98420.60;;;36.60
67758;BMP180;54562;47.620;18.786;2022-07-23T10:22:14;98428.40;;;36.74
67758;BMP180;54562;47.620;18.786;2022-07-23T10:25:29;98425.40;;;36.90
67758;BMP180;54562;47.620;18.786;2022-07-23T10:29:04;98424.00;;;37.20
67758;BMP180;54562;47.620;18.786;2022-07-23T10:32:31;98411.00;;;37.50
67758;BMP180;54562;47.620;18.786;2022-07-23T10:35:50;98409.60;;;37.50
67758;BMP180;54562;47.620;18.786;2022-07-23T10:39:05;98404.60;;;37.68
67758;BMP180;54562;47.620;18.786;2022-07-23T10:42:14;98402.80;;;37.80
67758;BMP180;54562;47.620;18.786;2022-07-23T10:45:32;98401.00;;;37.90
67758;BMP180;54562;47.620;18.786;2022-07-23T10:48:37;98405.00;;;37.96
67758;BMP180;54562;47.620;18.786;2022-07-23T10:52:24;98398.00;;;38.00
67758;BMP180;54562;47.620;18.786;2022-07-23T10:55:44;98396.40;;;38.10
67758;BMP180;54562;47.620;18.786;2022-07-23T10:58:50;98394.00;;;38.10
67758;BMP180;54562;47.620;18.786;2022-07-23T11:02:23;98393.80;;;38.10
67758;BMP180;54562;47.620;18.786;2022-07-23T11:05:40;98392.40;;;38.10
67758;BMP180;54562;47.620;18.786;2022-07-23T11:08:46;98384.00;;;38.20
67758;BMP180;54562;47.620;18.786;2022-07-23T11:11:50;98377.80;;;38.04
67758;BMP180;54562;47.620;18.786;2022-07-23T11:15:15;98368.40;;;37.90
67758;BMP180;54562;47.620;18.786;2022-07-23T11:19:05;98363.00;;;37.92
67758;BMP180;54562;47.620;18.786;2022-07-23T11:22:35;98369.40;;;38.14
67758;BMP180;54562;47.620;18.786;2022-07-23T11:25:40;98368.80;;;38.10
67758;BMP180;54562;47.620;18.786;2022-07-23T11:28:45;98372.60;;;38.00
67758;BMP180;54562;47.620;18.786;2022-07-23T11:31:55;98366.00;;;37.90
67758;BMP180;54562;47.620;18.786;2022-07-23T11:35:00;98372.60;;;37.74
67758;BMP180;54562;47.620;18.786;2022-07-23T11:38:08;98359.20;;;37.70
67758;BMP180;54562;47.620;18.786;2022-07-23T11:41:17;98362.60;;;37.70
67758;BMP180;54562;47.620;18.786;2022-07-23T11:44:29;98355.60;;;37.94
67758;BMP180;54562;47.620;18.786;2022-07-23T11:47:34;98354.00;;;38.30
67758;BMP180;54562;47.620;18.786;2022-07-23T11:50:39;98348.00;;;38.40
67758;BMP180;54562;47.620;18.786;2022-07-23T11:53:46;98344.00;;;38.50
67758;BMP180;54562;47.620;18.786;2022-07-23T11:56:57;98335.20;;;38.40
67758;BMP180;54562;47.620;18.786;2022-07-23T12:00:07;98331.60;;;38.50
67758;BMP180;54562;47.620;18.786;2022-07-23T12:03:14;98333.20;;;38.40
67758;BMP180;54562;47.620;18.786;2022-07-23T12:06:19;98333.60;;;38.40
67758;BMP180;54562;47.620;18.786;2022-07-23T12:09:24;98332.60;;;38.40
67758;BMP180;54562;47.620;18.786;2022-07-23T12:12:35;98334.20;;;38.20
67758;BMP180;54562;47.620;18.786;2022-07-23T12:15:43;98328.60;;;37.90
67758;BMP180;54562;47.620;18.786;2022-07-23T12:18:48;98326.80;;;37.60
67758;BMP180;54562;47.620;18.786;2022-07-23T12:21:55;98326.40;;;37.32
67758;BMP180;54562;47.620;18.786;2022-07-23T12:25:02;98325.60;;;37.14
67758;BMP180;54562;47.620;18.786;2022-07-23T12:28:11;98318.00;;;36.92
67758;BMP180;54562;47.620;18.786;2022-07-23T12:31:26;98315.00;;;36.86
67758;BMP180;54562;47.620;18.786;2022-07-23T12:34:32;98314.00;;;36.70
67758;BMP180;54562;47.620;18.786;2022-07-23T12:37:39;98308.40;;;36.80
67758;BMP180;54562;47.620;18.786;2022-07-23T12:40:48;98309.20;;;37.00
67758;BMP180;54562;47.620;18.786;2022-07-23T12:43:52;98302.00;;;37.28
67758;BMP180;54562;47.620;18.786;2022-07-23T12:46:58;98295.40;;;37.80
67758;BMP180;54562;47.620;18.786;2022-07-23T12:50:05;98294.60;;;38.30
67758;BMP180;54562;47.620;18.786;2022-07-23T12:53:14;98297.00;;;38.50
67758;BMP180;54562;47.620;18.786;2022-07-23T12:56:32;98288.80;;;38.50
67758;BMP180;54562;47.620;18.786;2022-07-23T12:59:37;98292.40;;;38.60
67758;BMP180;54562;47.620;18.786;2022-07-23T13:02:47;98296.20;;;38.50
67758;BMP180;54562;47.620;18.786;2022-07-23T13:05:52;98290.20;;;38.28
67758;BMP180;54562;47.620;18.786;2022-07-23T13:08:58;98284.80;;;38.10
67758;BMP180;54562;47.620;18.786;2022-07-23T13:12:05;98278.60;;;37.90
67758;BMP180;54562;47.620;18.786;2022-07-23T13:15:11;98274.00;;;37.90
67758;BMP180;54562;47.620;18.786;2022-07-23T13:18:16;98266.00;;;37.60
67758;BMP180;54562;47.620;18.786;2022-07-23T13:21:24;98264.40;;;37.32
67758;BMP180;54562;47.620;18.786;2022-07-23T13:24:30;98260.00;;;37.30
67758;BMP180;54562;47.620;18.786;2022-07-23T13:27:35;98256.00;;;37.60
67758;BMP180;54562;47.620;18.786;2022-07-23T13:30:46;98252.80;;;37.70
67758;BMP180;54562;47.620;18.786;2022-07-23T13:33:51;98248.80;;;37.60
67758;BMP180;54562;47.620;18.786;2022-07-23T13:36:56;98245.00;;;37.94
67758;BMP180;54562;47.620;18.786;2022-07-23T13:40:01;98249.40;;;38.40
67758;BMP180;54562;47.620;18.786;2022-07-23T13:43:24;98242.20;;;38.98
67758;BMP180;54562;47.620;18.786;2022-07-23T13:46:29;98236.40;;;39.50
67758;BMP180;54562;47.620;18.786;2022-07-23T13:49:35;98244.60;;;39.92
67758;BMP180;54562;47.620;18.786;2022-07-23T13:52:39;98244.60;;;40.30
67758;BMP180;54562;47.620;18.786;2022-07-23T13:55:45;98242.00;;;40.50
67758;BMP180;54562;47.620;18.786;2022-07-23T13:58:51;98235.40;;;40.50
67758;BMP180;54562;47.620;18.786;2022-07-23T14:01:58;98230.40;;;40.50
67758;BMP180;54562;47.620;18.786;2022-07-23T14:05:23;98228.20;;;40.50
67758;BMP180;54562;47.620;18.786;2022-07-23T14:08:28;98231.20;;;40.60
67758;BMP180;54562;47.620;18.786;2022-07-23T14:11:34;98228.00;;;40.50
67758;BMP180;54562;47.620;18.786;2022-07-23T14:14:40;98223.40;;;40.46
67758;BMP180;54562;47.620;18.786;2022-07-23T14:17:47;98221.80;;;40.30
67758;BMP180;54562;47.620;18.786;2022-07-23T14:20:52;98218.80;;;40.40
67758;BMP180;54562;47.620;18.786;2022-07-23T14:23:56;98203.40;;;40.20
67758;BMP180;54562;47.620;18.786;2022-07-23T14:27:03;98199.60;;;39.84
67758;BMP180;54562;47.620;18.786;2022-07-23T14:30:12;98191.60;;;39.50
67758;BMP180;54562;47.620;18.786;2022-07-23T14:33:17;98190.60;;;39.00
67758;BMP180;54562;47.620;18.786;2022-07-23T14:36:23;98179.80;;;38.50
67758;BMP180;54562;47.620;18.786;2022-07-23T14:39:28;98172.40;;;38.08
67758;BMP180;54562;47.620;18.786;2022-07-23T14:42:34;98174.40;;;37.62
67758;BMP180;54562;47.620;18.786;2022-07-23T14:45:39;98167.40;;;37.30
67758;BMP180;54562;47.620;18.786;2022-07-23T14:48:44;98172.80;;;37.00
67758;BMP180;54562;47.620;18.786;2022-07-23T14:51:50;98177.40;;;36.78
67758;BMP180;54562;47.620;18.786;2022-07-23T14:54:55;98184.00;;;36.50
67758;BMP180;54562;47.620;18.786;2022-07-23T14:58:00;98187.20;;;36.30
67758;BMP180;54562;47.620;18.786;2022-07-23T15:01:06;98190.40;;;36.10
67758;BMP180;54562;47.620;18.786;2022-07-23T15:04:11;98188.60;;;35.90
67758;BMP180;54562;47.620;18.786;2022-07-23T15:07:35;98192.80;;;35.68
67758;BMP180;54562;47.620;18.786;2022-07-23T15:10:40;98196.40;;;35.40
67758;BMP180;54562;47.620;18.786;2022-07-23T15:13:46;98196.60;;;35.12
67758;BMP180;54562;47.620;18.786;2022-07-23T15:16:51;98206.40;;;34.82
67758;BMP180;54562;47.620;18.786;2022-07-23T15:19:56;98224.60;;;34.30
67758;BMP180;54562;47.620;18.786;2022-07-23T15:23:01;98240.00;;;33.62
67758;BMP180;54562;47.620;18.786;2022-07-23T15:26:07;98267.60;;;32.94
67758;BMP180;54562;47.620;18.786;2022-07-23T15:29:12;98266.60;;;32.14
67758;BMP180;54562;47.620;18.786;2022-07-23T15:32:17;98276.20;;;31.36
67758;BMP180;54562;47.620;18.786;2022-07-23T15:35:22;98292.20;;;30.70
67758;BMP180;54562;47.620;18.786;2022-07-23T15:38:28;98287.40;;;30.00
67758;BMP180;54562;47.620;18.786;2022-07-23T15:41:34;98299.20;;;29.40
67758;BMP180;54562;47.620;18.786;2022-07-23T15:44:39;98315.60;;;28.80
67758;BMP180;54562;47.620;18.786;2022-07-23T15:47:44;98315.20;;;28.10
67758;BMP180;54562;47.620;18.786;2022-07-23T15:50:49;98315.40;;;27.42
67758;BMP180;54562;47.620;18.786;2022-07-23T15:53:54;98316.60;;;26.86
67758;BMP180;54562;47.620;18.786;2022-07-23T15:56:59;98337.80;;;26.48
67758;BMP180;54562;47.620;18.786;2022-07-23T16:00:12;98309.80;;;26.20
67758;BMP180;54562;47.620;18.786;2022-07-23T16:03:17;98306.60;;;26.00
67758;BMP180;54562;47.620;18.786;2022-07-23T16:06:22;98312.60;;;26.30
67758;BMP180;54562;47.620;18.786;2022-07-23T16:09:29;98355.20;;;26.74
67758;BMP180;54562;47.620;18.786;2022-07-23T16:12:34;98362.20;;;26.80
67758;BMP180;54562;47.620;18.786;2022-07-23T16:15:38;98357.20;;;26.70
67758;BMP180;54562;47.620;18.786;2022-07-23T16:18:45;98350.80;;;26.70
67758;BMP180;54562;47.620;18.786;2022-07-23T16:21:51;98373.20;;;26.70
67758;BMP180;54562;47.620;18.786;2022-07-23T16:24:56;98410.20;;;26.64
67758;BMP180;54562;47.620;18.786;2022-07-23T16:28:01;98450.00;;;26.50
67758;BMP180;54562;47.620;18.786;2022-07-23T16:31:06;98455.60;;;26.30
67758;BMP180;54562;47.620;18.786;2022-07-23T16:34:11;98466.40;;;26.00
67758;BMP180;54562;47.620;18.786;2022-07-23T16:37:16;98472.60;;;25.80
67758;BMP180;54562;47.620;18.786;2022-07-23T16:40:21;98482.80;;;25.70
67758;BMP180;54562;47.620;18.786;2022-07-23T16:43:26;98485.20;;;25.50
67758;BMP180;54562;47.620;18.786;2022-07-23T16:46:30;98481.00;;;25.34
67758;BMP180;54562;47.620;18.786;2022-07-23T16:49:36;98463.00;;;25.14
67758;BMP180;54562;47.620;18.786;2022-07-23T16:52:40;98455.80;;;25.00
67758;BMP180;54562;47.620;18.786;2022-07-23T16:55:46;98449.00;;;24.80
67758;BMP180;54562;47.620;18.786;2022-07-23T16:58:51;98430.40;;;24.60
67758;BMP180;54562;47.620;18.786;2022-07-23T17:01:57;98413.40;;;24.44
67758;BMP180;54562;47.620;18.786;2022-07-23T17:05:02;98398.60;;;24.38
67758;BMP180;54562;47.620;18.786;2022-07-23T17:08:07;98384.00;;;24.30
67758;BMP180;54562;47.620;18.786;2022-07-23T17:11:12;98363.00;;;24.22
67758;BMP180;54562;47.620;18.786;2022-07-23T17:14:17;98346.40;;;24.20
67758;BMP180;54562;47.620;18.786;2022-07-23T17:17:21;98338.20;;;24.20
67758;BMP180;54562;47.620;18.786;2022-07-23T17:20:27;98327.80;;;24.20
67758;BMP180;54562;47.620;18.786;2022-07-23T17:23:31;98327.40;;;24.10
67758;BMP180;54562;47.620;18.786;2022-07-23T17:26:36;98326.80;;;24.10
67758;BMP180;54562;47.620;18.786;2022-07-23T17:29:41;98317.20;;;24.20
67758;BMP180;54562;47.620;18.786;2022-07-23T17:32:47;98312.00;;;24.20
67758;BMP180;54562;47.620;18.786;2022-07-23T17:35:51;98306.80;;;24.30
67758;BMP180;54562;47.620;18.786;2022-07-23T17:38:59;98298.40;;;24.40
67758;BMP180;54562;47.620;18.786;2022-07-23T17:42:09;98300.60;;;24.40
67758;BMP180;54562;47.620;18.786;2022-07-23T17:45:14;98298.00;;;24.50